Terminal Aerodrome Forecast
Issued by NWS Pendleton, OR

Home | Current Version | Previous Version | Text Only | Print | Product List | Glossary On
Versions: 1 2 3 4 5 6 7 8 9 10 11 12 13 14 15 16 17 18 19 20 21 22 23 24 25 26 27 28 29
000
FTUS46 KPDT 241920 AAB
TAFPDT
TAF AMD
KPDT 241920Z 2419/2518 19009KT P6SM -RA SCT035 OVC050
     FM242000 21010KT P6SM -RA BKN035 OVC050
     FM242200 26012G20KT P6SM -SHRA SCT035 BKN050 OVC060
     FM250000 25008KT P6SM VCSH SCT060 OVC080
     FM250200 VRB05KT P6SM SCT080 OVC100=

USA.gov is the U.S. government's official web portal to all federal, state and local government web resources and services.